19/05/05 - 20h:07mDenunciar

General Dynamics F-16 Fighting Falcon

Imagem de Jorge Manuel Antão Ruivo, retirada do site Jetphotos.net.





METAR SBPB 192300Z 10006KT 9999 FEW020 BKN300 29/26 Q1009=

Comentários (0)

Fotos postadas a mais de 15 dias não podem receber comentários.